createdAt,value
2022-10-20T00:00:55.856Z,5.88
2022-10-20T00:02:04.761Z,6.07
2022-10-20T00:03:35.176Z,5.60
2022-10-20T00:04:50.247Z,6.18
2022-10-20T00:09:54.601Z,5.10
2022-10-20T00:11:07.884Z,6.47
2022-10-20T00:12:12.349Z,5.63
2022-10-20T00:13:22.695Z,6.75
2022-10-20T00:14:44.056Z,8.13
2022-10-20T00:16:12.233Z,4.70
2022-10-20T00:17:29.427Z,5.57
2022-10-20T00:18:38.905Z,6.38
2022-10-20T00:19:53.425Z,4.63
2022-10-20T00:21:11.019Z,5.40
2022-10-20T00:24:03.014Z,5.95
2022-10-20T00:25:16.134Z,5.82
2022-10-20T00:26:41.324Z,5.60
2022-10-20T00:27:51.661Z,5.53
2022-10-20T00:30:47.656Z,5.72
2022-10-20T00:31:53.809Z,6.43
2022-10-20T00:33:12.807Z,6.80
2022-10-20T00:34:32.179Z,6.03
2022-10-20T00:35:40.514Z,7.10
2022-10-20T00:36:50.417Z,7.32
2022-10-20T00:38:01.513Z,8.63
2022-10-20T00:39:10.952Z,6.30
2022-10-20T00:40:16.919Z,7.07
2022-10-20T00:41:27.835Z,6.30
2022-10-20T00:42:35.509Z,6.20
2022-10-20T00:43:57.093Z,6.50
2022-10-20T00:45:05.483Z,7.53
2022-10-20T00:49:26.037Z,8.02
2022-10-20T00:50:44.090Z,6.93
2022-10-20T00:52:06.233Z,8.50
2022-10-20T00:53:11.250Z,6.82
2022-10-20T00:54:22.792Z,7.47
2022-10-20T00:55:34.657Z,8.85
2022-10-20T00:56:48.768Z,7.28
2022-10-20T00:57:54.049Z,7.03
2022-10-20T00:58:59.521Z,6.40
2022-10-20T01:00:13.374Z,8.88
2022-10-20T01:01:28.501Z,6.63
2022-10-20T01:03:55.286Z,7.50
2022-10-20T01:05:01.818Z,6.25
2022-10-20T01:06:10.560Z,8.80
2022-10-20T01:07:19.966Z,6.85
2022-10-20T01:08:22.618Z,7.85
2022-10-20T01:09:28.140Z,7.30
2022-10-20T01:10:57.386Z,6.00
2022-10-20T01:12:09.497Z,6.75
2022-10-20T01:17:15.632Z,7.57
2022-10-20T01:19:00.152Z,6.63
2022-10-20T01:21:14.817Z,7.72
2022-10-20T01:22:32.484Z,8.70
2022-10-20T01:24:24.519Z,7.50
2022-10-20T01:25:57.292Z,7.30
2022-10-20T01:27:49.078Z,7.93
2022-10-20T01:33:06.570Z,8.48
2022-10-20T01:34:29.980Z,8.13
2022-10-20T01:35:54.639Z,5.70
2022-10-20T01:37:19.768Z,10.63
2022-10-20T01:39:28.797Z,6.35
2022-10-20T01:44:32.992Z,5.78
2022-10-20T01:49:41.360Z,7.35
2022-10-20T01:52:39.360Z,6.63
2022-10-20T01:54:07.630Z,8.38
2022-10-20T01:57:06.287Z,6.53
2022-10-20T01:58:16.087Z,7.13
2022-10-20T02:00:27.158Z,6.88
2022-10-20T02:01:50.802Z,5.72
2022-10-20T02:03:40.185Z,5.43
2022-10-20T02:05:10.952Z,5.97
2022-10-20T02:06:53.377Z,4.47
2022-10-20T02:08:40.484Z,6.88
2022-10-20T02:11:05.320Z,9.10
2022-10-20T02:12:46.801Z,6.10
2022-10-20T02:14:19.687Z,5.82
2022-10-20T02:15:31.803Z,4.43
2022-10-20T02:17:01.394Z,5.35
2022-10-20T02:19:44.203Z,4.75
2022-10-20T02:20:57.403Z,7.25
2022-10-20T02:22:26.623Z,5.43
2022-10-20T02:23:37.590Z,5.13
2022-10-20T02:24:44.579Z,4.68
2022-10-20T02:25:56.697Z,5.10
2022-10-20T02:27:24.997Z,4.43
2022-10-20T02:28:40.464Z,7.65
2022-10-20T02:29:52.450Z,4.88
2022-10-20T02:30:58.330Z,5.55
2022-10-20T02:32:03.558Z,5.45
2022-10-20T02:33:08.341Z,6.20
2022-10-20T02:34:12.927Z,5.55
2022-10-20T02:35:21.406Z,7.20
2022-10-20T02:36:29.969Z,5.40
2022-10-20T02:37:32.557Z,6.85
2022-10-20T02:38:38.830Z,5.38
2022-10-20T02:39:41.972Z,5.93
2022-10-20T02:40:48.859Z,7.47
2022-10-20T02:41:56.743Z,6.30
2022-10-20T02:43:11.327Z,5.97
2022-10-20T02:44:14.479Z,7.07
2022-10-20T02:45:19.489Z,7.38
2022-10-20T02:46:25.857Z,7.50
2022-10-20T02:47:35.087Z,5.60
2022-10-20T02:48:47.056Z,6.07
2022-10-20T02:49:50.903Z,6.55
2022-10-20T02:50:57.607Z,6.30
2022-10-20T02:52:03.399Z,6.90
2022-10-20T02:53:07.156Z,6.97
2022-10-20T02:54:14.854Z,7.13
2022-10-20T02:55:20.390Z,6.00
2022-10-20T02:56:31.111Z,6.75
2022-10-20T02:57:41.894Z,6.15
2022-10-20T02:58:48.618Z,6.00
2022-10-20T02:59:53.486Z,5.70
2022-10-20T03:01:03.111Z,4.85
2022-10-20T03:02:21.425Z,6.68
2022-10-20T03:03:29.410Z,6.80
2022-10-20T03:04:33.274Z,6.68
2022-10-20T03:05:45.020Z,6.43
2022-10-20T03:06:49.961Z,7.68
2022-10-20T03:07:55.494Z,6.30
2022-10-20T03:08:59.243Z,5.57
2022-10-20T03:10:05.269Z,6.25
2022-10-20T03:11:10.976Z,9.82
2022-10-20T03:12:15.190Z,5.45
2022-10-20T03:13:19.390Z,8.32
2022-10-20T03:14:24.361Z,6.47
2022-10-20T03:15:43.310Z,5.35
2022-10-20T03:16:47.454Z,6.30
2022-10-20T03:17:49.902Z,7.68
2022-10-20T03:18:52.232Z,7.30
2022-10-20T03:19:58.393Z,7.85
2022-10-20T03:21:06.244Z,10.13
2022-10-20T03:22:26.210Z,7.28
2022-10-20T03:24:35.019Z,7.75
2022-10-20T03:25:49.509Z,6.00
2022-10-20T03:27:00.863Z,7.88
2022-10-20T03:28:04.964Z,7.32
2022-10-20T03:29:09.144Z,9.45
2022-10-20T03:30:28.296Z,7.45
2022-10-20T03:31:38.810Z,12.05
2022-10-20T03:32:44.334Z,9.45
2022-10-20T03:35:15.545Z,7.90
2022-10-20T03:36:26.963Z,7.13
2022-10-20T03:37:30.239Z,8.10
2022-10-20T03:38:36.916Z,9.30
2022-10-20T03:39:39.846Z,7.88
2022-10-20T03:40:50.198Z,9.32
2022-10-20T03:41:56.775Z,10.32
2022-10-20T03:44:27.390Z,7.18
2022-10-20T03:45:34.029Z,8.20
2022-10-20T03:47:56.057Z,11.95
2022-10-20T03:49:08.973Z,10.50
2022-10-20T03:50:22.597Z,12.50
2022-10-20T03:51:37.036Z,11.48
2022-10-20T03:53:06.962Z,10.40
2022-10-20T03:54:13.407Z,12.90
2022-10-20T03:56:41.979Z,12.70
2022-10-20T03:57:49.292Z,11.18
2022-10-20T04:00:25.598Z,12.45
2022-10-20T04:01:48.960Z,12.57
2022-10-20T04:03:06.364Z,13.35
2022-10-20T04:04:14.327Z,12.57
2022-10-20T04:05:28.570Z,13.80
2022-10-20T04:06:33.839Z,13.95
2022-10-20T04:07:43.391Z,14.73
2022-10-20T04:09:01.944Z,16.95
2022-10-20T04:11:46.075Z,14.25
2022-10-20T04:12:53.577Z,15.60
2022-10-20T04:14:00.233Z,21.05
2022-10-20T04:15:12.816Z,16.85
2022-10-20T04:16:43.855Z,15.32
2022-10-20T04:17:51.484Z,19.05
2022-10-20T04:19:02.115Z,15.60
2022-10-20T04:20:11.342Z,15.50
2022-10-20T04:21:15.297Z,16.52
2022-10-20T04:22:19.741Z,17.80
2022-10-20T04:23:28.725Z,17.50
2022-10-20T04:25:40.831Z,17.15
2022-10-20T04:26:47.838Z,14.48
2022-10-20T04:28:03.337Z,17.90
2022-10-20T04:29:08.534Z,23.38
2022-10-20T04:30:11.769Z,16.67
2022-10-20T04:31:38.129Z,18.48
2022-10-20T04:32:41.773Z,18.38
2022-10-20T04:33:44.210Z,18.33
2022-10-20T04:34:48.622Z,17.40
2022-10-20T04:36:03.474Z,16.60
2022-10-20T04:37:08.894Z,15.77
2022-10-20T04:38:12.599Z,19.23
2022-10-20T04:39:19.598Z,18.10
2022-10-20T04:40:24.680Z,17.60
2022-10-20T04:41:30.190Z,17.10
2022-10-20T04:42:35.878Z,18.30
2022-10-20T04:43:40.385Z,18.73
2022-10-20T04:44:45.602Z,18.25
2022-10-20T04:46:03.890Z,18.35
2022-10-20T04:47:11.725Z,16.65
2022-10-20T04:48:16.286Z,15.65
2022-10-20T04:49:20.515Z,14.60
2022-10-20T04:50:27.210Z,14.73
2022-10-20T04:52:00.859Z,14.85
2022-10-20T04:53:05.711Z,13.82
2022-10-20T04:54:09.541Z,16.42
2022-10-20T04:55:12.023Z,14.10
2022-10-20T04:56:22.184Z,15.77
2022-10-20T04:57:27.164Z,16.27
2022-10-20T04:58:29.982Z,18.25
2022-10-20T04:59:38.132Z,15.13
2022-10-20T05:00:42.141Z,14.80
2022-10-20T05:01:47.543Z,14.27
2022-10-20T05:02:51.006Z,15.55
2022-10-20T05:03:56.373Z,15.68
2022-10-20T05:04:58.427Z,15.27
2022-10-20T05:06:15.492Z,14.90
2022-10-20T05:07:17.525Z,15.50
2022-10-20T05:08:21.136Z,17.02
2022-10-20T05:09:23.242Z,13.43
2022-10-20T05:10:25.254Z,18.73
2022-10-20T05:11:29.413Z,13.45
2022-10-20T05:12:32.051Z,13.75
2022-10-20T05:13:35.391Z,13.85
2022-10-20T05:14:37.593Z,12.88
2022-10-20T05:15:39.814Z,12.38
2022-10-20T05:16:44.819Z,12.50
2022-10-20T05:17:48.465Z,12.73
2022-10-20T05:18:53.462Z,13.43
2022-10-20T05:19:56.031Z,15.10
2022-10-20T05:21:08.487Z,14.05
2022-10-20T05:22:11.341Z,13.55
2022-10-20T05:23:13.549Z,14.77
2022-10-20T05:24:22.102Z,16.58
2022-10-20T05:25:36.024Z,15.55
2022-10-20T05:26:39.317Z,16.05
2022-10-20T05:27:42.573Z,13.60
2022-10-20T05:28:49.803Z,15.05
2022-10-20T05:29:51.834Z,12.40
2022-10-20T05:30:55.642Z,15.20
2022-10-20T05:32:00.094Z,16.30
2022-10-20T05:33:03.524Z,14.00
2022-10-20T05:34:05.529Z,12.82
2022-10-20T05:35:09.105Z,13.23
2022-10-20T05:36:12.738Z,13.48
2022-10-20T05:37:14.779Z,14.48
2022-10-20T05:38:16.736Z,12.30
2022-10-20T05:39:19.352Z,13.10
2022-10-20T05:40:25.830Z,15.43
2022-10-20T05:41:33.327Z,13.13
2022-10-20T05:42:39.206Z,12.68
2022-10-20T05:43:42.015Z,12.63
2022-10-20T05:44:43.987Z,12.30
2022-10-20T05:45:46.045Z,13.68
2022-10-20T05:46:48.028Z,14.18
2022-10-20T05:47:50.141Z,14.75
2022-10-20T05:48:57.520Z,16.58
2022-10-20T05:49:59.905Z,14.10
2022-10-20T05:51:15.025Z,12.90
2022-10-20T05:52:17.621Z,14.43
2022-10-20T05:53:21.450Z,13.38
2022-10-20T05:54:24.635Z,16.52
2022-10-20T05:55:26.650Z,12.43
2022-10-20T05:56:30.749Z,14.65
2022-10-20T05:57:37.055Z,14.20
2022-10-20T05:58:45.677Z,16.58
2022-10-20T05:59:50.826Z,14.25
2022-10-20T06:00:54.650Z,11.65
2022-10-20T06:01:56.793Z,13.63
2022-10-20T06:02:59.526Z,14.02
2022-10-20T06:04:04.058Z,13.05
2022-10-20T06:05:10.048Z,12.13
2022-10-20T06:06:15.251Z,15.15
2022-10-20T06:07:20.600Z,13.63
2022-10-20T06:08:27.128Z,13.18
2022-10-20T06:09:30.311Z,12.88
2022-10-20T06:10:34.335Z,11.48
2022-10-20T06:11:41.875Z,10.98
2022-10-20T06:12:52.351Z,12.75
2022-10-20T06:14:15.583Z,13.40
2022-10-20T06:15:33.549Z,13.23
2022-10-20T06:17:00.666Z,12.20
2022-10-20T06:18:03.291Z,12.25
2022-10-20T06:19:07.991Z,12.32
2022-10-20T06:20:26.085Z,15.23
2022-10-20T06:22:03.890Z,11.43
2022-10-20T06:23:22.642Z,12.10
2022-10-20T06:24:34.810Z,10.35
2022-10-20T06:25:46.447Z,10.30
2022-10-20T06:26:53.165Z,12.27
2022-10-20T06:28:01.581Z,10.07
2022-10-20T06:29:10.826Z,9.85
2022-10-20T06:30:25.449Z,9.20
2022-10-20T06:32:06.637Z,8.57
2022-10-20T06:33:17.811Z,9.38
2022-10-20T06:34:25.823Z,9.80
2022-10-20T06:35:31.488Z,7.65
2022-10-20T06:36:48.398Z,7.70
2022-10-20T06:38:11.202Z,8.48
2022-10-20T06:39:20.670Z,7.28
2022-10-20T06:40:26.268Z,6.22
2022-10-20T06:41:33.433Z,7.18
2022-10-20T06:42:41.548Z,10.23
2022-10-20T06:43:50.702Z,8.23
2022-10-20T06:44:56.287Z,8.55
2022-10-20T06:46:03.389Z,9.68
2022-10-20T06:47:11.367Z,6.28
2022-10-20T06:48:32.200Z,6.38
2022-10-20T06:49:35.387Z,9.05
2022-10-20T06:50:38.742Z,6.07
2022-10-20T06:52:32.268Z,7.28
2022-10-20T06:53:38.914Z,7.47
2022-10-20T06:54:54.155Z,7.10
2022-10-20T06:56:28.624Z,8.98
2022-10-20T06:57:33.657Z,7.72
2022-10-20T06:58:38.629Z,6.32
2022-10-20T06:59:45.512Z,7.70
2022-10-20T07:00:47.840Z,8.65
2022-10-20T07:01:50.654Z,7.25
2022-10-20T07:04:15.762Z,6.38
2022-10-20T07:05:31.775Z,7.72
2022-10-20T07:06:41.919Z,6.40
2022-10-20T07:07:47.096Z,7.20
2022-10-20T07:08:51.240Z,7.72
2022-10-20T07:09:57.698Z,8.43
2022-10-20T07:11:10.191Z,6.53
2022-10-20T07:12:17.352Z,9.32
2022-10-20T07:13:19.637Z,8.48
2022-10-20T07:17:22.708Z,6.57
2022-10-20T07:18:28.173Z,7.10
2022-10-20T07:19:33.333Z,6.50
2022-10-20T07:20:37.086Z,8.98
2022-10-20T07:21:45.922Z,6.28
2022-10-20T07:22:54.461Z,6.85
2022-10-20T07:24:11.887Z,7.97
2022-10-20T07:26:32.911Z,7.43
2022-10-20T07:27:37.623Z,5.93
2022-10-20T07:30:06.783Z,6.07
2022-10-20T07:32:34.369Z,7.20
2022-10-20T07:33:38.028Z,6.00
2022-10-20T07:34:41.531Z,5.03
2022-10-20T07:36:02.333Z,5.68
2022-10-20T07:37:05.936Z,7.90
2022-10-20T07:40:46.516Z,6.13
2022-10-20T07:41:52.702Z,6.15
2022-10-20T07:42:57.614Z,7.97
2022-10-20T07:44:00.233Z,7.07
2022-10-20T07:45:05.871Z,6.15
2022-10-20T07:46:11.921Z,6.82
2022-10-20T07:47:14.175Z,5.65
2022-10-20T07:48:19.239Z,6.13
2022-10-20T07:50:46.113Z,5.40
2022-10-20T07:51:50.913Z,7.32
2022-10-20T07:52:53.662Z,7.45
2022-10-20T07:54:04.800Z,6.75
2022-10-20T07:55:18.000Z,6.90
2022-10-20T07:56:43.795Z,8.73
2022-10-20T07:57:48.751Z,9.93
2022-10-20T07:58:54.147Z,7.68
2022-10-20T07:59:58.906Z,5.93
2022-10-20T08:01:01.277Z,8.15
2022-10-20T08:02:04.810Z,6.68
2022-10-20T08:03:11.377Z,5.57
2022-10-20T08:04:15.571Z,6.20
2022-10-20T08:05:17.844Z,6.32
2022-10-20T08:07:40.625Z,6.38
2022-10-20T08:08:44.579Z,7.38
2022-10-20T08:09:47.758Z,8.50
2022-10-20T08:10:50.817Z,6.30
2022-10-20T08:11:55.500Z,7.28
2022-10-20T08:12:58.741Z,8.40
2022-10-20T08:14:00.854Z,9.23
2022-10-20T08:15:18.905Z,4.60
2022-10-20T08:17:40.369Z,7.22
2022-10-20T08:18:59.830Z,7.82
2022-10-20T08:20:13.587Z,7.00
2022-10-20T08:21:20.097Z,5.63
2022-10-20T08:22:24.755Z,5.70
2022-10-20T08:23:32.067Z,6.82
2022-10-20T08:24:44.602Z,10.73
2022-10-20T08:25:47.728Z,6.78
2022-10-20T08:26:51.416Z,5.68
2022-10-20T08:27:54.087Z,5.35
2022-10-20T08:28:59.820Z,7.68
2022-10-20T08:30:22.406Z,6.50
2022-10-20T08:31:31.481Z,7.53
2022-10-20T08:32:34.803Z,6.75
2022-10-20T08:33:41.928Z,8.85
2022-10-20T08:34:44.150Z,8.07
2022-10-20T08:35:47.212Z,6.65
2022-10-20T08:36:49.390Z,5.65
2022-10-20T08:37:55.400Z,6.28
2022-10-20T08:39:05.059Z,5.72
2022-10-20T08:40:16.750Z,6.68
2022-10-20T08:41:23.184Z,6.28
2022-10-20T08:42:27.354Z,7.15
2022-10-20T08:43:34.286Z,6.10
2022-10-20T08:44:38.769Z,5.22
2022-10-20T08:45:40.907Z,6.05
2022-10-20T08:46:43.369Z,6.07
2022-10-20T08:47:47.362Z,6.00
2022-10-20T08:48:50.425Z,6.38
2022-10-20T08:49:54.356Z,6.47
2022-10-20T08:50:58.126Z,5.72
2022-10-20T08:52:07.089Z,7.22
2022-10-20T08:53:11.929Z,7.53
2022-10-20T08:54:19.072Z,4.88
2022-10-20T08:55:30.482Z,6.25
2022-10-20T08:56:36.695Z,6.93
2022-10-20T08:57:43.255Z,5.90
2022-10-20T08:58:46.787Z,5.45
2022-10-20T08:59:52.613Z,4.93
2022-10-20T09:01:00.848Z,5.68
2022-10-20T09:02:14.810Z,5.47
2022-10-20T09:04:52.424Z,7.15
2022-10-20T09:06:09.586Z,5.40
2022-10-20T09:07:34.523Z,8.48
2022-10-20T09:08:40.341Z,6.88
2022-10-20T09:09:42.718Z,7.57
2022-10-20T09:10:53.849Z,6.63
2022-10-20T09:12:06.697Z,8.68
2022-10-20T09:13:23.913Z,7.47
2022-10-20T09:14:26.599Z,8.63
2022-10-20T09:15:32.280Z,6.75
2022-10-20T09:16:58.829Z,7.25
2022-10-20T09:18:14.069Z,6.80
2022-10-20T09:19:24.014Z,6.93
2022-10-20T09:26:57.465Z,7.97
2022-10-20T09:28:34.816Z,7.10
2022-10-20T09:29:48.075Z,8.85
2022-10-20T09:30:51.230Z,7.88
2022-10-20T09:31:58.304Z,12.15
2022-10-20T09:33:23.497Z,7.78
2022-10-20T09:34:37.342Z,10.52
2022-10-20T09:35:42.201Z,10.32
2022-10-20T09:36:54.865Z,7.07
2022-10-20T09:38:10.574Z,4.75
2022-10-20T09:39:26.569Z,4.68
2022-10-20T09:40:29.881Z,4.65
2022-10-20T09:41:34.617Z,7.60
2022-10-20T09:42:41.393Z,6.28
2022-10-20T09:43:58.831Z,5.80
2022-10-20T09:45:07.811Z,4.50
2022-10-20T09:46:13.468Z,4.93
2022-10-20T09:47:17.712Z,5.30
2022-10-20T09:48:35.831Z,5.90
2022-10-20T09:49:40.312Z,5.68
2022-10-20T09:50:49.371Z,5.55
2022-10-20T09:52:57.229Z,5.63
2022-10-20T09:54:08.250Z,6.10
2022-10-20T09:55:33.391Z,5.60
2022-10-20T09:56:41.412Z,8.25
2022-10-20T09:57:50.150Z,6.82
2022-10-20T09:58:52.950Z,5.65
2022-10-20T10:00:04.551Z,5.50
2022-10-20T10:01:18.960Z,7.47
2022-10-20T10:02:21.129Z,5.40
2022-10-20T10:03:24.227Z,7.93
2022-10-20T10:04:42.514Z,7.05
2022-10-20T10:05:45.060Z,5.78
2022-10-20T10:06:48.595Z,5.47
2022-10-20T10:08:00.108Z,6.75
2022-10-20T10:09:03.645Z,7.65
2022-10-20T10:10:27.458Z,5.18
2022-10-20T10:11:35.576Z,4.93
2022-10-20T10:12:38.051Z,8.68
2022-10-20T10:13:44.463Z,6.82
2022-10-20T10:15:18.194Z,6.90
2022-10-20T10:16:27.887Z,8.20
2022-10-20T10:17:43.859Z,5.95
2022-10-20T10:18:58.022Z,5.47
2022-10-20T10:20:02.211Z,8.10
2022-10-20T10:21:11.186Z,5.97
2022-10-20T10:22:20.793Z,7.25
2022-10-20T10:23:28.333Z,8.30
2022-10-20T10:24:42.288Z,10.20
2022-10-20T10:25:46.247Z,7.07
2022-10-20T10:26:55.405Z,6.68
2022-10-20T10:28:22.830Z,7.85
2022-10-20T10:29:28.460Z,6.35
2022-10-20T10:30:35.485Z,7.57
2022-10-20T10:31:50.412Z,6.63
2022-10-20T10:32:52.682Z,7.90
2022-10-20T10:34:13.279Z,6.70
2022-10-20T10:35:41.144Z,8.13
2022-10-20T10:36:43.684Z,7.40
2022-10-20T10:37:46.371Z,8.32
2022-10-20T10:38:52.091Z,5.90
2022-10-20T10:39:55.051Z,8.07
2022-10-20T10:41:24.291Z,8.55
2022-10-20T10:42:55.651Z,5.88
2022-10-20T10:44:00.352Z,7.70
2022-10-20T10:45:25.277Z,7.43
2022-10-20T10:46:34.133Z,6.40
2022-10-20T10:47:42.337Z,7.57
2022-10-20T10:48:48.090Z,5.30
2022-10-20T10:50:03.103Z,6.53
2022-10-20T10:51:16.725Z,5.13
2022-10-20T10:52:31.520Z,5.10
2022-10-20T10:53:59.594Z,6.03
2022-10-20T10:55:30.555Z,5.05
2022-10-20T10:56:50.172Z,4.63
2022-10-20T10:58:01.373Z,5.85
2022-10-20T10:59:18.879Z,7.13
2022-10-20T11:00:35.153Z,8.82
2022-10-20T11:02:46.019Z,8.07
2022-10-20T11:04:08.068Z,6.32
2022-10-20T11:05:51.920Z,7.55
2022-10-20T11:07:25.193Z,7.10
2022-10-20T11:08:58.856Z,6.43
2022-10-20T11:10:13.157Z,7.82
2022-10-20T11:11:43.930Z,6.40
2022-10-20T11:12:52.993Z,8.20
2022-10-20T11:14:45.864Z,5.05
2022-10-20T11:16:22.870Z,4.75
2022-10-20T11:17:31.344Z,7.47
2022-10-20T11:19:10.438Z,3.88
2022-10-20T11:20:19.767Z,4.53
2022-10-20T11:21:34.912Z,5.10
2022-10-20T11:22:40.153Z,3.22
2022-10-20T11:23:45.171Z,4.78
2022-10-20T11:25:06.341Z,4.82
2022-10-20T11:26:29.112Z,5.55
2022-10-20T11:27:36.017Z,4.38
2022-10-20T11:28:53.776Z,5.45
2022-10-20T11:30:20.025Z,3.95
2022-10-20T11:31:51.335Z,5.50
2022-10-20T11:33:27.053Z,4.82
2022-10-20T11:34:55.828Z,3.83
2022-10-20T11:36:03.863Z,14.13
2022-10-20T11:37:30.212Z,5.05
2022-10-20T11:39:01.635Z,4.43
2022-10-20T11:40:16.490Z,6.07
2022-10-20T11:41:39.658Z,4.65
2022-10-20T11:43:14.787Z,6.70
2022-10-20T11:44:40.978Z,5.35
2022-10-20T11:46:26.893Z,4.88
2022-10-20T11:47:39.577Z,7.13
2022-10-20T11:48:51.964Z,4.15
2022-10-20T11:49:54.503Z,5.28
2022-10-20T11:51:34.651Z,5.70
2022-10-20T11:53:02.060Z,5.03
2022-10-20T11:54:25.707Z,7.10
2022-10-20T11:55:58.224Z,4.22
2022-10-20T11:57:13.049Z,4.53
2022-10-20T11:58:41.553Z,5.60
2022-10-20T12:01:33.436Z,3.97
2022-10-20T12:02:53.796Z,8.27
2022-10-20T12:04:14.429Z,3.80
2022-10-20T12:06:04.186Z,5.85
2022-10-20T12:07:29.024Z,4.63
2022-10-20T12:08:56.359Z,4.03
2022-10-20T12:10:07.095Z,5.32
2022-10-20T12:11:38.300Z,3.10
2022-10-20T12:12:54.517Z,4.93
2022-10-20T12:14:08.885Z,4.45
2022-10-20T12:15:23.588Z,5.13
2022-10-20T12:16:54.774Z,4.65
2022-10-20T12:18:07.317Z,4.15
2022-10-20T12:19:23.963Z,3.53
2022-10-20T12:20:26.022Z,5.78
2022-10-20T12:22:07.164Z,6.25
2022-10-20T12:23:45.775Z,4.70
2022-10-20T12:24:54.531Z,5.55
2022-10-20T12:25:57.897Z,4.38
2022-10-20T12:27:08.673Z,4.68
2022-10-20T12:28:23.009Z,5.00
2022-10-20T12:29:31.231Z,9.32
2022-10-20T12:30:40.488Z,5.20
2022-10-20T12:32:21.890Z,4.30
2022-10-20T12:33:49.898Z,4.00
2022-10-20T12:34:54.642Z,5.75
2022-10-20T12:36:15.625Z,5.38
2022-10-20T12:37:19.988Z,6.18
2022-10-20T12:38:23.799Z,4.85
2022-10-20T12:39:31.060Z,4.40
2022-10-20T12:40:33.504Z,3.90
2022-10-20T12:41:42.154Z,5.18
2022-10-20T12:42:52.488Z,4.43
2022-10-20T12:44:01.808Z,10.18
2022-10-20T12:45:03.892Z,6.32
2022-10-20T12:46:12.820Z,5.60
2022-10-20T12:47:23.992Z,5.78
2022-10-20T12:48:27.125Z,7.13
2022-10-20T12:49:41.681Z,4.85
2022-10-20T12:50:49.129Z,4.88
2022-10-20T12:51:54.628Z,4.70
2022-10-20T12:53:08.840Z,6.38
2022-10-20T12:54:44.882Z,8.23
2022-10-20T12:56:09.676Z,6.88
2022-10-20T12:57:41.921Z,4.95
2022-10-20T12:59:20.088Z,5.53
2022-10-20T13:00:22.796Z,6.75
2022-10-20T13:01:29.406Z,5.78
2022-10-20T13:02:33.687Z,4.88
2022-10-20T13:03:40.689Z,3.85
2022-10-20T13:04:57.990Z,5.78
2022-10-20T13:06:00.923Z,5.05
2022-10-20T13:07:03.734Z,7.75
2022-10-20T13:08:23.049Z,5.45
2022-10-20T13:09:25.323Z,6.18
2022-10-20T13:10:30.270Z,6.63
2022-10-20T13:11:41.638Z,4.95
2022-10-20T13:12:44.177Z,6.10
2022-10-20T13:14:01.487Z,7.95
2022-10-20T13:15:13.383Z,10.93
2022-10-20T13:16:20.475Z,6.63
2022-10-20T13:17:51.398Z,5.63
2022-10-20T13:18:53.995Z,7.30
2022-10-20T13:20:15.869Z,5.00
2022-10-20T13:21:29.904Z,6.05
2022-10-20T13:22:41.349Z,8.95
2022-10-20T13:23:48.173Z,8.38
2022-10-20T13:24:53.603Z,7.65
2022-10-20T13:26:17.440Z,5.93
2022-10-20T13:27:24.415Z,5.63
2022-10-20T13:28:29.557Z,8.18
2022-10-20T13:29:43.821Z,7.75
2022-10-20T13:31:22.680Z,6.75
2022-10-20T13:32:31.815Z,9.18
2022-10-20T13:34:06.287Z,8.77
2022-10-20T13:35:20.131Z,6.47
2022-10-20T13:36:38.223Z,6.10
2022-10-20T13:37:57.354Z,5.40
2022-10-20T13:39:09.318Z,7.80
2022-10-20T13:40:24.042Z,5.35
2022-10-20T13:41:43.405Z,5.18
2022-10-20T13:43:24.957Z,7.57
2022-10-20T13:45:09.508Z,8.23
2022-10-20T13:46:23.489Z,5.80
2022-10-20T13:47:48.637Z,6.75
2022-10-20T13:49:16.730Z,8.32
2022-10-20T13:50:23.530Z,5.80
2022-10-20T13:51:29.398Z,5.45
2022-10-20T13:52:45.170Z,4.00
2022-10-20T13:53:51.848Z,7.95
2022-10-20T13:54:54.068Z,7.93
2022-10-20T13:56:02.407Z,8.85
2022-10-20T13:57:05.707Z,8.23
2022-10-20T13:58:17.665Z,7.10
2022-10-20T14:00:33.694Z,9.30
2022-10-20T14:02:39.873Z,7.68
2022-10-20T14:03:44.525Z,6.82
2022-10-20T14:04:46.646Z,9.43
2022-10-20T14:05:49.761Z,7.47
2022-10-20T14:06:53.512Z,7.32
2022-10-20T14:08:00.818Z,6.22
2022-10-20T14:09:21.952Z,6.28
2022-10-20T14:10:44.144Z,4.28
2022-10-20T14:11:53.295Z,7.32
2022-10-20T14:14:01.569Z,6.68
2022-10-20T14:15:06.653Z,5.88
2022-10-20T14:16:18.782Z,5.45
2022-10-20T14:17:24.480Z,7.78
2022-10-20T14:18:32.081Z,7.75
2022-10-20T14:19:35.484Z,5.03
2022-10-20T14:20:38.998Z,8.43
2022-10-20T14:21:49.834Z,10.43
2022-10-20T14:22:55.218Z,8.75
2022-10-20T14:24:02.973Z,9.45
2022-10-20T14:25:09.018Z,5.78
2022-10-20T14:26:17.270Z,7.65
2022-10-20T14:27:30.429Z,5.65
2022-10-20T14:28:35.775Z,7.25
2022-10-20T14:29:40.123Z,9.13
2022-10-20T14:30:42.424Z,5.75
2022-10-20T14:31:47.858Z,5.13
2022-10-20T14:32:51.307Z,8.10
2022-10-20T14:33:53.846Z,9.98
2022-10-20T14:35:01.360Z,8.25
2022-10-20T14:36:04.911Z,11.23
2022-10-20T14:37:18.139Z,5.85
2022-10-20T14:38:30.664Z,7.63
2022-10-20T14:39:41.429Z,7.05
2022-10-20T14:40:51.753Z,11.23
2022-10-20T14:41:59.126Z,6.22
2022-10-20T14:43:27.223Z,5.85
2022-10-20T14:44:31.727Z,7.40
2022-10-20T14:45:34.699Z,5.93
2022-10-20T14:46:41.729Z,5.95
2022-10-20T14:47:45.643Z,8.40
2022-10-20T14:48:50.702Z,9.15
2022-10-20T14:49:55.168Z,9.82
2022-10-20T14:50:57.422Z,7.57
2022-10-20T14:52:25.894Z,8.95
2022-10-20T14:53:33.541Z,10.50
2022-10-20T14:54:54.126Z,6.97
2022-10-20T14:56:02.788Z,9.35
2022-10-20T14:57:07.911Z,7.13
2022-10-20T14:58:56.967Z,6.53
2022-10-20T15:00:04.528Z,12.75
2022-10-20T15:02:43.273Z,7.32
2022-10-20T15:03:46.175Z,6.53
2022-10-20T15:04:52.216Z,7.90
2022-10-20T15:06:03.648Z,10.27
2022-10-20T15:07:27.937Z,8.25
2022-10-20T15:08:30.273Z,9.55
2022-10-20T15:09:40.440Z,8.25
2022-10-20T15:10:43.074Z,10.68
2022-10-20T15:11:45.588Z,10.23
2022-10-20T15:12:50.761Z,7.13
2022-10-20T15:13:55.555Z,10.07
2022-10-20T15:15:22.183Z,6.85
2022-10-20T15:16:46.632Z,8.82
2022-10-20T15:18:21.608Z,7.45
2022-10-20T15:19:30.114Z,8.77
2022-10-20T15:20:34.076Z,11.90
2022-10-20T15:21:38.769Z,9.90
2022-10-20T15:22:40.932Z,12.05
2022-10-20T15:23:42.945Z,8.88
2022-10-20T15:24:49.171Z,10.77
2022-10-20T15:25:55.976Z,10.27
2022-10-20T15:26:58.993Z,8.80
2022-10-20T15:28:01.191Z,10.20
2022-10-20T15:29:06.526Z,11.18
2022-10-20T15:30:20.647Z,12.75
2022-10-20T15:31:27.032Z,11.45
2022-10-20T15:32:29.249Z,11.35
2022-10-20T15:33:31.931Z,18.27
2022-10-20T15:34:34.046Z,8.15
2022-10-20T15:35:36.323Z,11.07
2022-10-20T15:36:41.985Z,8.20
2022-10-20T15:37:45.234Z,7.70
2022-10-20T15:38:52.157Z,7.05
2022-10-20T15:39:54.270Z,11.73
2022-10-20T15:40:56.799Z,7.88
2022-10-20T15:41:59.237Z,8.38
2022-10-20T15:43:02.650Z,9.45
2022-10-20T15:44:25.165Z,8.75
2022-10-20T15:45:29.328Z,6.25
2022-10-20T15:46:31.854Z,7.82
2022-10-20T15:47:34.132Z,15.00
2022-10-20T15:48:37.929Z,11.43
2022-10-20T15:49:40.518Z,8.35
2022-10-20T15:50:44.097Z,8.40
2022-10-20T15:51:48.146Z,10.57
2022-10-20T15:52:50.155Z,8.07
2022-10-20T15:53:52.826Z,7.55
2022-10-20T15:54:54.927Z,11.38
2022-10-20T15:55:58.577Z,15.07
2022-10-20T15:57:00.746Z,5.78
2022-10-20T15:58:03.517Z,10.52
2022-10-20T16:00:13.350Z,10.25
2022-10-20T16:01:19.270Z,9.82
2022-10-20T16:02:25.797Z,15.52
2022-10-20T16:03:28.938Z,9.98
2022-10-20T16:04:32.645Z,8.50
2022-10-20T16:05:34.876Z,7.75
2022-10-20T16:06:39.399Z,14.80
2022-10-20T16:07:41.970Z,9.50
2022-10-20T16:08:47.478Z,8.60
2022-10-20T16:09:49.718Z,10.38
2022-10-20T16:10:51.974Z,11.07
2022-10-20T16:11:54.400Z,8.63
2022-10-20T16:12:58.280Z,6.78
2022-10-20T16:14:00.394Z,14.25
2022-10-20T16:15:04.150Z,9.98
2022-10-20T16:16:08.193Z,12.52
2022-10-20T16:17:10.330Z,9.00
2022-10-20T16:18:12.514Z,7.63
2022-10-20T16:19:14.748Z,11.30
2022-10-20T16:20:17.603Z,9.65
2022-10-20T16:21:19.834Z,8.73
2022-10-20T16:22:22.109Z,8.73
2022-10-20T16:23:25.035Z,9.60
2022-10-20T16:24:27.591Z,11.10
2022-10-20T16:25:29.840Z,7.13
2022-10-20T16:26:32.439Z,6.10
2022-10-20T16:27:36.738Z,7.60
2022-10-20T16:28:39.045Z,7.57
2022-10-20T16:29:43.196Z,8.73
2022-10-20T16:30:47.294Z,10.70
2022-10-20T16:31:49.468Z,9.18
2022-10-20T16:32:52.248Z,7.53
2022-10-20T16:33:54.466Z,11.40
2022-10-20T16:34:58.340Z,8.18
2022-10-20T16:36:09.981Z,7.63
2022-10-20T16:37:12.305Z,7.53
2022-10-20T16:38:14.723Z,11.10
2022-10-20T16:39:18.041Z,10.32
2022-10-20T16:40:20.379Z,15.02
2022-10-20T16:41:23.265Z,10.23
2022-10-20T16:42:26.653Z,9.68
2022-10-20T16:43:29.518Z,18.75
2022-10-20T16:44:32.071Z,9.73
2022-10-20T16:45:34.272Z,8.82
2022-10-20T16:46:36.940Z,11.45
2022-10-20T16:47:41.416Z,7.75
2022-10-20T16:48:48.211Z,9.70
2022-10-20T16:49:50.898Z,13.20
2022-10-20T16:50:53.178Z,8.23
2022-10-20T16:51:58.013Z,10.88
2022-10-20T16:53:00.350Z,9.57